sensor_id;sensor_type;location;lat;lon;timestamp;P1;durP1;ratioP1;P2;durP2;ratioP2
49320;SDS011;35817;44.498;0.166;2022-10-14T00:01:25;5.07;;;0.88;;
49320;SDS011;35817;44.498;0.166;2022-10-14T00:03:52;3.38;;;0.93;;
49320;SDS011;35817;44.498;0.166;2022-10-14T00:06:24;2.90;;;0.73;;
49320;SDS011;35817;44.498;0.166;2022-10-14T00:08:52;4.97;;;1.58;;
49320;SDS011;35817;44.498;0.166;2022-10-14T00:11:20;2.42;;;0.70;;
49320;SDS011;35817;44.498;0.166;2022-10-14T00:13:48;4.13;;;1.20;;
49320;SDS011;35817;44.498;0.166;2022-10-14T00:16:17;1.85;;;0.50;;
49320;SDS011;35817;44.498;0.166;2022-10-14T00:19:02;3.20;;;0.73;;
49320;SDS011;35817;44.498;0.166;2022-10-14T00:21:28;1.08;;;0.55;;
49320;SDS011;35817;44.498;0.166;2022-10-14T00:23:55;8.80;;;0.80;;
49320;SDS011;35817;44.498;0.166;2022-10-14T00:26:29;4.40;;;1.23;;
49320;SDS011;35817;44.498;0.166;2022-10-14T00:28:57;2.22;;;0.80;;
49320;SDS011;35817;44.498;0.166;2022-10-14T00:31:24;5.35;;;0.73;;
49320;SDS011;35817;44.498;0.166;2022-10-14T00:33:50;5.40;;;0.70;;
49320;SDS011;35817;44.498;0.166;2022-10-14T00:36:17;3.15;;;0.90;;
49320;SDS011;35817;44.498;0.166;2022-10-14T00:38:44;5.15;;;1.30;;
49320;SDS011;35817;44.498;0.166;2022-10-14T00:41:14;3.88;;;0.93;;
49320;SDS011;35817;44.498;0.166;2022-10-14T00:43:58;4.20;;;0.50;;
49320;SDS011;35817;44.498;0.166;2022-10-14T00:46:38;3.70;;;0.65;;
49320;SDS011;35817;44.498;0.166;2022-10-14T00:49:14;2.42;;;0.77;;
49320;SDS011;35817;44.498;0.166;2022-10-14T00:51:51;2.65;;;0.50;;
49320;SDS011;35817;44.498;0.166;2022-10-14T00:54:21;4.10;;;1.20;;
49320;SDS011;35817;44.498;0.166;2022-10-14T00:56:49;3.13;;;0.93;;
49320;SDS011;35817;44.498;0.166;2022-10-14T00:59:16;5.65;;;0.95;;
49320;SDS011;35817;44.498;0.166;2022-10-14T01:01:42;7.32;;;0.82;;
49320;SDS011;35817;44.498;0.166;2022-10-14T01:04:09;7.03;;;0.95;;
49320;SDS011;35817;44.498;0.166;2022-10-14T01:09:17;2.40;;;0.68;;
49320;SDS011;35817;44.498;0.166;2022-10-14T01:12:01;5.57;;;0.65;;
49320;SDS011;35817;44.498;0.166;2022-10-14T01:32:01;6.35;;;1.33;;
49320;SDS011;35817;44.498;0.166;2022-10-14T01:34:35;8.10;;;0.77;;
49320;SDS011;35817;44.498;0.166;2022-10-14T01:37:10;6.75;;;0.75;;
49320;SDS011;35817;44.498;0.166;2022-10-14T01:39:44;3.22;;;0.52;;
49320;SDS011;35817;44.498;0.166;2022-10-14T01:42:19;4.05;;;0.40;;
49320;SDS011;35817;44.498;0.166;2022-10-14T01:44:58;6.20;;;0.50;;
49320;SDS011;35817;44.498;0.166;2022-10-14T01:47:29;5.63;;;0.68;;
49320;SDS011;35817;44.498;0.166;2022-10-14T01:49:59;3.80;;;0.50;;
49320;SDS011;35817;44.498;0.166;2022-10-14T01:52:30;7.10;;;0.60;;
49320;SDS011;35817;44.498;0.166;2022-10-14T01:55:00;4.63;;;0.40;;
49320;SDS011;35817;44.498;0.166;2022-10-14T01:57:30;6.57;;;1.27;;
49320;SDS011;35817;44.498;0.166;2022-10-14T02:00:09;4.03;;;0.75;;
49320;SDS011;35817;44.498;0.166;2022-10-14T02:02:35;6.15;;;1.25;;
49320;SDS011;35817;44.498;0.166;2022-10-14T02:05:05;3.80;;;0.73;;
49320;SDS011;35817;44.498;0.166;2022-10-14T02:07:45;3.67;;;1.00;;
49320;SDS011;35817;44.498;0.166;2022-10-14T02:24:14;13.30;;;1.33;;
49320;SDS011;35817;44.498;0.166;2022-10-14T02:26:42;3.58;;;0.68;;
49320;SDS011;35817;44.498;0.166;2022-10-14T02:29:09;9.57;;;1.88;;
49320;SDS011;35817;44.498;0.166;2022-10-14T02:31:36;5.90;;;0.73;;
49320;SDS011;35817;44.498;0.166;2022-10-14T02:34:04;6.75;;;0.93;;
49320;SDS011;35817;44.498;0.166;2022-10-14T02:36:35;6.07;;;0.80;;
49320;SDS011;35817;44.498;0.166;2022-10-14T02:39:02;10.68;;;1.73;;
49320;SDS011;35817;44.498;0.166;2022-10-14T02:41:30;6.75;;;1.13;;
49320;SDS011;35817;44.498;0.166;2022-10-14T02:46:25;9.50;;;1.02;;
49320;SDS011;35817;44.498;0.166;2022-10-14T02:48:53;9.95;;;2.15;;
49320;SDS011;35817;44.498;0.166;2022-10-14T02:51:18;7.82;;;1.80;;
49320;SDS011;35817;44.498;0.166;2022-10-14T02:53:44;6.40;;;0.82;;
49320;SDS011;35817;44.498;0.166;2022-10-14T02:56:13;5.55;;;0.68;;
49320;SDS011;35817;44.498;0.166;2022-10-14T03:01:05;4.72;;;0.55;;
49320;SDS011;35817;44.498;0.166;2022-10-14T03:03:31;11.13;;;1.13;;
49320;SDS011;35817;44.498;0.166;2022-10-14T03:05:57;8.15;;;1.02;;
49320;SDS011;35817;44.498;0.166;2022-10-14T03:08:23;4.57;;;1.20;;
49320;SDS011;35817;44.498;0.166;2022-10-14T03:10:48;8.70;;;1.35;;
49320;SDS011;35817;44.498;0.166;2022-10-14T03:13:14;5.00;;;1.13;;
49320;SDS011;35817;44.498;0.166;2022-10-14T03:15:40;10.68;;;1.75;;
49320;SDS011;35817;44.498;0.166;2022-10-14T03:18:06;7.07;;;1.00;;
49320;SDS011;35817;44.498;0.166;2022-10-14T03:20:31;7.28;;;1.15;;
49320;SDS011;35817;44.498;0.166;2022-10-14T03:22:57;12.32;;;1.73;;
49320;SDS011;35817;44.498;0.166;2022-10-14T03:25:23;11.32;;;2.33;;
49320;SDS011;35817;44.498;0.166;2022-10-14T03:27:49;5.78;;;0.95;;
49320;SDS011;35817;44.498;0.166;2022-10-14T03:30:15;21.23;;;2.05;;
49320;SDS011;35817;44.498;0.166;2022-10-14T03:32:41;9.18;;;1.88;;
49320;SDS011;35817;44.498;0.166;2022-10-14T03:35:06;11.38;;;1.60;;
49320;SDS011;35817;44.498;0.166;2022-10-14T03:37:32;10.35;;;1.30;;
49320;SDS011;35817;44.498;0.166;2022-10-14T03:39:58;3.00;;;1.00;;
49320;SDS011;35817;44.498;0.166;2022-10-14T03:42:24;6.78;;;1.00;;
49320;SDS011;35817;44.498;0.166;2022-10-14T03:44:49;10.80;;;1.85;;
49320;SDS011;35817;44.498;0.166;2022-10-14T03:47:15;17.58;;;1.67;;
49320;SDS011;35817;44.498;0.166;2022-10-14T03:49:41;3.60;;;0.65;;
49320;SDS011;35817;44.498;0.166;2022-10-14T03:52:07;10.18;;;2.40;;
49320;SDS011;35817;44.498;0.166;2022-10-14T03:54:32;6.75;;;2.30;;
49320;SDS011;35817;44.498;0.166;2022-10-14T03:56:58;16.20;;;2.15;;
49320;SDS011;35817;44.498;0.166;2022-10-14T03:59:24;6.90;;;1.27;;
49320;SDS011;35817;44.498;0.166;2022-10-14T04:01:50;6.72;;;1.65;;
49320;SDS011;35817;44.498;0.166;2022-10-14T04:04:15;15.82;;;2.42;;
49320;SDS011;35817;44.498;0.166;2022-10-14T04:06:41;8.15;;;1.90;;
49320;SDS011;35817;44.498;0.166;2022-10-14T04:09:07;8.55;;;1.35;;
49320;SDS011;35817;44.498;0.166;2022-10-14T04:11:32;19.33;;;2.58;;
49320;SDS011;35817;44.498;0.166;2022-10-14T04:13:58;11.93;;;1.98;;
49320;SDS011;35817;44.498;0.166;2022-10-14T04:16:24;11.05;;;1.88;;
49320;SDS011;35817;44.498;0.166;2022-10-14T04:18:51;9.55;;;2.00;;
49320;SDS011;35817;44.498;0.166;2022-10-14T04:21:18;12.32;;;2.33;;
49320;SDS011;35817;44.498;0.166;2022-10-14T04:23:44;12.38;;;2.17;;
49320;SDS011;35817;44.498;0.166;2022-10-14T04:26:10;11.45;;;1.98;;
49320;SDS011;35817;44.498;0.166;2022-10-14T04:28:39;11.88;;;2.25;;
49320;SDS011;35817;44.498;0.166;2022-10-14T04:31:05;9.48;;;2.45;;
49320;SDS011;35817;44.498;0.166;2022-10-14T04:33:31;15.82;;;2.45;;
49320;SDS011;35817;44.498;0.166;2022-10-14T04:35:57;14.68;;;2.83;;
49320;SDS011;35817;44.498;0.166;2022-10-14T04:38:24;13.85;;;2.45;;
49320;SDS011;35817;44.498;0.166;2022-10-14T04:40:49;12.48;;;2.13;;
49320;SDS011;35817;44.498;0.166;2022-10-14T04:43:15;10.52;;;2.08;;
49320;SDS011;35817;44.498;0.166;2022-10-14T04:45:41;10.77;;;1.63;;
49320;SDS011;35817;44.498;0.166;2022-10-14T04:48:07;12.77;;;2.10;;
49320;SDS011;35817;44.498;0.166;2022-10-14T04:50:32;9.48;;;1.98;;
49320;SDS011;35817;44.498;0.166;2022-10-14T04:52:58;13.13;;;2.47;;
49320;SDS011;35817;44.498;0.166;2022-10-14T04:55:24;19.02;;;2.63;;
49320;SDS011;35817;44.498;0.166;2022-10-14T04:57:50;7.65;;;1.40;;
49320;SDS011;35817;44.498;0.166;2022-10-14T05:00:15;8.52;;;1.65;;
49320;SDS011;35817;44.498;0.166;2022-10-14T05:02:41;7.65;;;1.88;;
49320;SDS011;35817;44.498;0.166;2022-10-14T05:05:07;12.75;;;1.98;;
49320;SDS011;35817;44.498;0.166;2022-10-14T05:07:35;10.32;;;1.77;;
49320;SDS011;35817;44.498;0.166;2022-10-14T05:10:02;9.48;;;1.90;;
49320;SDS011;35817;44.498;0.166;2022-10-14T05:12:29;18.17;;;1.80;;
49320;SDS011;35817;44.498;0.166;2022-10-14T05:14:55;11.23;;;1.58;;
49320;SDS011;35817;44.498;0.166;2022-10-14T05:17:21;13.63;;;1.35;;
49320;SDS011;35817;44.498;0.166;2022-10-14T05:19:47;12.63;;;2.42;;
49320;SDS011;35817;44.498;0.166;2022-10-14T05:22:13;8.20;;;2.15;;
49320;SDS011;35817;44.498;0.166;2022-10-14T05:24:39;6.28;;;1.50;;
49320;SDS011;35817;44.498;0.166;2022-10-14T05:27:05;15.93;;;1.83;;
49320;SDS011;35817;44.498;0.166;2022-10-14T05:29:31;21.75;;;3.03;;
49320;SDS011;35817;44.498;0.166;2022-10-14T05:31:58;11.90;;;2.47;;
49320;SDS011;35817;44.498;0.166;2022-10-14T05:34:24;14.32;;;1.85;;
49320;SDS011;35817;44.498;0.166;2022-10-14T05:36:50;13.60;;;2.17;;
49320;SDS011;35817;44.498;0.166;2022-10-14T05:39:16;8.00;;;1.80;;
49320;SDS011;35817;44.498;0.166;2022-10-14T05:41:41;8.85;;;2.17;;
49320;SDS011;35817;44.498;0.166;2022-10-14T05:44:09;9.90;;;2.00;;
49320;SDS011;35817;44.498;0.166;2022-10-14T05:46:35;11.00;;;2.65;;
49320;SDS011;35817;44.498;0.166;2022-10-14T05:49:01;9.27;;;2.45;;
49320;SDS011;35817;44.498;0.166;2022-10-14T05:51:30;15.90;;;2.65;;
49320;SDS011;35817;44.498;0.166;2022-10-14T05:53:56;13.27;;;2.53;;
49320;SDS011;35817;44.498;0.166;2022-10-14T05:56:22;14.13;;;2.83;;
49320;SDS011;35817;44.498;0.166;2022-10-14T05:58:49;12.18;;;2.08;;
49320;SDS011;35817;44.498;0.166;2022-10-14T06:01:14;11.63;;;2.70;;
49320;SDS011;35817;44.498;0.166;2022-10-14T06:03:40;14.63;;;2.47;;
49320;SDS011;35817;44.498;0.166;2022-10-14T06:06:09;22.98;;;3.35;;
49320;SDS011;35817;44.498;0.166;2022-10-14T06:08:44;20.33;;;2.92;;
49320;SDS011;35817;44.498;0.166;2022-10-14T06:11:11;10.57;;;2.40;;
49320;SDS011;35817;44.498;0.166;2022-10-14T06:13:46;14.70;;;1.95;;
49320;SDS011;35817;44.498;0.166;2022-10-14T06:16:16;7.35;;;1.73;;
49320;SDS011;35817;44.498;0.166;2022-10-14T06:18:45;18.27;;;2.83;;
49320;SDS011;35817;44.498;0.166;2022-10-14T06:21:14;12.30;;;2.40;;
49320;SDS011;35817;44.498;0.166;2022-10-14T06:23:40;9.45;;;2.03;;
49320;SDS011;35817;44.498;0.166;2022-10-14T06:26:06;8.80;;;1.98;;
49320;SDS011;35817;44.498;0.166;2022-10-14T06:28:34;9.55;;;1.27;;
49320;SDS011;35817;44.498;0.166;2022-10-14T06:31:00;7.65;;;2.45;;
49320;SDS011;35817;44.498;0.166;2022-10-14T06:33:27;11.63;;;1.98;;
49320;SDS011;35817;44.498;0.166;2022-10-14T06:35:53;13.35;;;2.53;;
49320;SDS011;35817;44.498;0.166;2022-10-14T06:38:19;12.90;;;1.83;;
49320;SDS011;35817;44.498;0.166;2022-10-14T06:40:45;10.30;;;2.22;;
49320;SDS011;35817;44.498;0.166;2022-10-14T06:43:14;13.07;;;1.50;;
49320;SDS011;35817;44.498;0.166;2022-10-14T06:45:39;10.52;;;1.42;;
49320;SDS011;35817;44.498;0.166;2022-10-14T06:48:05;9.25;;;2.70;;
49320;SDS011;35817;44.498;0.166;2022-10-14T06:50:31;9.00;;;1.27;;
49320;SDS011;35817;44.498;0.166;2022-10-14T06:52:57;17.20;;;2.88;;
49320;SDS011;35817;44.498;0.166;2022-10-14T06:55:25;15.00;;;2.38;;
49320;SDS011;35817;44.498;0.166;2022-10-14T06:57:51;13.48;;;1.58;;
49320;SDS011;35817;44.498;0.166;2022-10-14T07:00:17;9.25;;;1.77;;
49320;SDS011;35817;44.498;0.166;2022-10-14T07:02:44;8.00;;;2.03;;
49320;SDS011;35817;44.498;0.166;2022-10-14T07:05:10;6.93;;;1.15;;
49320;SDS011;35817;44.498;0.166;2022-10-14T07:07:36;10.85;;;1.45;;
49320;SDS011;35817;44.498;0.166;2022-10-14T07:10:02;13.25;;;1.63;;
49320;SDS011;35817;44.498;0.166;2022-10-14T07:12:28;5.35;;;1.02;;
49320;SDS011;35817;44.498;0.166;2022-10-14T07:14:54;9.30;;;1.95;;
49320;SDS011;35817;44.498;0.166;2022-10-14T07:17:22;10.93;;;1.77;;
49320;SDS011;35817;44.498;0.166;2022-10-14T07:19:48;6.68;;;1.48;;
49320;SDS011;35817;44.498;0.166;2022-10-14T07:22:14;8.10;;;1.58;;
49320;SDS011;35817;44.498;0.166;2022-10-14T07:24:41;11.50;;;1.75;;
49320;SDS011;35817;44.498;0.166;2022-10-14T07:27:08;8.38;;;2.22;;
49320;SDS011;35817;44.498;0.166;2022-10-14T07:29:34;9.18;;;2.17;;
49320;SDS011;35817;44.498;0.166;2022-10-14T07:32:00;14.95;;;1.73;;
49320;SDS011;35817;44.498;0.166;2022-10-14T07:34:27;8.02;;;1.58;;
49320;SDS011;35817;44.498;0.166;2022-10-14T07:36:56;9.90;;;1.48;;
49320;SDS011;35817;44.498;0.166;2022-10-14T07:39:22;15.38;;;1.45;;
49320;SDS011;35817;44.498;0.166;2022-10-14T07:41:49;9.45;;;1.33;;
49320;SDS011;35817;44.498;0.166;2022-10-14T07:44:15;8.63;;;2.67;;
49320;SDS011;35817;44.498;0.166;2022-10-14T07:46:42;9.00;;;1.38;;
49320;SDS011;35817;44.498;0.166;2022-10-14T07:49:10;10.90;;;1.95;;
49320;SDS011;35817;44.498;0.166;2022-10-14T07:51:37;6.45;;;1.33;;
49320;SDS011;35817;44.498;0.166;2022-10-14T07:54:04;10.82;;;1.60;;
49320;SDS011;35817;44.498;0.166;2022-10-14T07:56:35;9.23;;;1.33;;
49320;SDS011;35817;44.498;0.166;2022-10-14T07:59:02;7.82;;;1.85;;
49320;SDS011;35817;44.498;0.166;2022-10-14T08:01:28;8.63;;;1.98;;
49320;SDS011;35817;44.498;0.166;2022-10-14T08:03:54;7.72;;;1.10;;
49320;SDS011;35817;44.498;0.166;2022-10-14T08:06:20;10.23;;;1.80;;
49320;SDS011;35817;44.498;0.166;2022-10-14T08:08:46;7.35;;;1.90;;
49320;SDS011;35817;44.498;0.166;2022-10-14T08:11:14;6.72;;;1.33;;
49320;SDS011;35817;44.498;0.166;2022-10-14T08:16:37;9.20;;;1.33;;
49320;SDS011;35817;44.498;0.166;2022-10-14T08:19:05;8.13;;;1.30;;
49320;SDS011;35817;44.498;0.166;2022-10-14T08:21:32;13.00;;;2.65;;
49320;SDS011;35817;44.498;0.166;2022-10-14T08:23:58;5.63;;;0.82;;
49320;SDS011;35817;44.498;0.166;2022-10-14T08:26:28;9.77;;;1.88;;
49320;SDS011;35817;44.498;0.166;2022-10-14T08:28:56;6.90;;;1.05;;
49320;SDS011;35817;44.498;0.166;2022-10-14T08:31:23;11.27;;;1.27;;
49320;SDS011;35817;44.498;0.166;2022-10-14T08:33:49;4.57;;;1.27;;
49320;SDS011;35817;44.498;0.166;2022-10-14T08:36:15;7.00;;;1.70;;
49320;SDS011;35817;44.498;0.166;2022-10-14T08:38:41;6.15;;;1.38;;
49320;SDS011;35817;44.498;0.166;2022-10-14T08:43:37;8.00;;;1.65;;
49320;SDS011;35817;44.498;0.166;2022-10-14T08:46:21;13.52;;;1.50;;
49320;SDS011;35817;44.498;0.166;2022-10-14T08:48:59;9.43;;;2.03;;
49320;SDS011;35817;44.498;0.166;2022-10-14T08:51:35;4.78;;;0.93;;
49320;SDS011;35817;44.498;0.166;2022-10-14T08:54:06;5.07;;;0.77;;
49320;SDS011;35817;44.498;0.166;2022-10-14T08:56:39;10.50;;;1.00;;
49320;SDS011;35817;44.498;0.166;2022-10-14T08:59:09;8.15;;;1.25;;
49320;SDS011;35817;44.498;0.166;2022-10-14T09:01:43;5.85;;;1.27;;
49320;SDS011;35817;44.498;0.166;2022-10-14T09:04:36;7.93;;;2.20;;
49320;SDS011;35817;44.498;0.166;2022-10-14T09:07:02;6.13;;;1.00;;
49320;SDS011;35817;44.498;0.166;2022-10-14T09:12:11;8.88;;;1.35;;
49320;SDS011;35817;44.498;0.166;2022-10-14T09:14:45;8.05;;;1.90;;
49320;SDS011;35817;44.498;0.166;2022-10-14T09:17:15;6.53;;;1.63;;
49320;SDS011;35817;44.498;0.166;2022-10-14T09:19:50;7.40;;;1.70;;
49320;SDS011;35817;44.498;0.166;2022-10-14T09:22:21;7.10;;;0.88;;
49320;SDS011;35817;44.498;0.166;2022-10-14T09:24:48;7.10;;;1.05;;
49320;SDS011;35817;44.498;0.166;2022-10-14T09:27:15;7.32;;;1.35;;
49320;SDS011;35817;44.498;0.166;2022-10-14T09:34:56;5.35;;;0.95;;
49320;SDS011;35817;44.498;0.166;2022-10-14T09:37:33;7.85;;;1.30;;
49320;SDS011;35817;44.498;0.166;2022-10-14T09:40:08;7.75;;;1.00;;
49320;SDS011;35817;44.498;0.166;2022-10-14T09:45:23;4.78;;;0.43;;
49320;SDS011;35817;44.498;0.166;2022-10-14T09:48:14;2.78;;;0.20;;
49320;SDS011;35817;44.498;0.166;2022-10-14T09:50:48;3.25;;;0.40;;
49320;SDS011;35817;44.498;0.166;2022-10-14T09:53:26;4.78;;;0.20;;
49320;SDS011;35817;44.498;0.166;2022-10-14T09:55:59;3.55;;;0.50;;
49320;SDS011;35817;44.498;0.166;2022-10-14T10:01:06;1.88;;;0.43;;
49320;SDS011;35817;44.498;0.166;2022-10-14T10:03:40;7.75;;;0.85;;
49320;SDS011;35817;44.498;0.166;2022-10-14T10:18:11;4.28;;;0.75;;
49320;SDS011;35817;44.498;0.166;2022-10-14T10:20:58;5.68;;;0.75;;
49320;SDS011;35817;44.498;0.166;2022-10-14T10:23:35;2.20;;;0.20;;
49320;SDS011;35817;44.498;0.166;2022-10-14T10:26:19;4.28;;;0.25;;
49320;SDS011;35817;44.498;0.166;2022-10-14T10:29:08;1.17;;;0.38;;
49320;SDS011;35817;44.498;0.166;2022-10-14T10:32:16;3.60;;;0.40;;
49320;SDS011;35817;44.498;0.166;2022-10-14T10:34:58;5.22;;;0.55;;
49320;SDS011;35817;44.498;0.166;2022-10-14T11:00:44;2.63;;;0.38;;
49320;SDS011;35817;44.498;0.166;2022-10-14T11:06:28;3.92;;;0.35;;
49320;SDS011;35817;44.498;0.166;2022-10-14T11:09:29;1.67;;;0.17;;
49320;SDS011;35817;44.498;0.166;2022-10-14T11:12:32;2.47;;;0.38;;
49320;SDS011;35817;44.498;0.166;2022-10-14T11:15:18;3.92;;;0.15;;
49320;SDS011;35817;44.498;0.166;2022-10-14T11:18:12;1.85;;;0.40;;
49320;SDS011;35817;44.498;0.166;2022-10-14T11:21:05;6.53;;;0.53;;
49320;SDS011;35817;44.498;0.166;2022-10-14T11:23:57;1.95;;;0.10;;
49320;SDS011;35817;44.498;0.166;2022-10-14T11:26:42;2.85;;;0.22;;
49320;SDS011;35817;44.498;0.166;2022-10-14T11:32:19;4.53;;;0.20;;
49320;SDS011;35817;44.498;0.166;2022-10-14T11:40:41;5.10;;;0.55;;
49320;SDS011;35817;44.498;0.166;2022-10-14T11:43:32;1.77;;;0.13;;
49320;SDS011;35817;44.498;0.166;2022-10-14T11:46:15;2.75;;;0.30;;
49320;SDS011;35817;44.498;0.166;2022-10-14T11:51:56;3.55;;;0.30;;
49320;SDS011;35817;44.498;0.166;2022-10-14T12:13:12;5.28;;;0.50;;
49320;SDS011;35817;44.498;0.166;2022-10-14T12:15:48;1.83;;;0.30;;
49320;SDS011;35817;44.498;0.166;2022-10-14T12:28:13;2.90;;;0.45;;
49320;SDS011;35817;44.498;0.166;2022-10-14T12:31:19;2.53;;;0.30;;
49320;SDS011;35817;44.498;0.166;2022-10-14T12:54:57;3.15;;;0.28;;
49320;SDS011;35817;44.498;0.166;2022-10-14T12:58:06;5.90;;;0.30;;
49320;SDS011;35817;44.498;0.166;2022-10-14T13:00:54;4.22;;;0.30;;
49320;SDS011;35817;44.498;0.166;2022-10-14T13:03:36;4.53;;;0.20;;
49320;SDS011;35817;44.498;0.166;2022-10-14T13:10:42;4.28;;;0.32;;
49320;SDS011;35817;44.498;0.166;2022-10-14T13:19:36;1.85;;;0.32;;
49320;SDS011;35817;44.498;0.166;2022-10-14T13:22:53;2.42;;;0.20;;
49320;SDS011;35817;44.498;0.166;2022-10-14T13:25:44;3.45;;;0.60;;
49320;SDS011;35817;44.498;0.166;2022-10-14T13:28:14;3.15;;;0.20;;
49320;SDS011;35817;44.498;0.166;2022-10-14T13:31:02;5.05;;;0.47;;
49320;SDS011;35817;44.498;0.166;2022-10-14T13:33:45;1.33;;;0.38;;
49320;SDS011;35817;44.498;0.166;2022-10-14T13:36:51;2.20;;;0.22;;
49320;SDS011;35817;44.498;0.166;2022-10-14T13:39:43;1.98;;;0.40;;
49320;SDS011;35817;44.498;0.166;2022-10-14T13:42:13;3.20;;;0.65;;
49320;SDS011;35817;44.498;0.166;2022-10-14T13:45:16;7.35;;;0.50;;
49320;SDS011;35817;44.498;0.166;2022-10-14T13:50:44;4.80;;;0.40;;
49320;SDS011;35817;44.498;0.166;2022-10-14T13:53:18;1.75;;;0.40;;
49320;SDS011;35817;44.498;0.166;2022-10-14T13:55:47;1.45;;;0.60;;
49320;SDS011;35817;44.498;0.166;2022-10-14T13:58:18;9.57;;;1.42;;
49320;SDS011;35817;44.498;0.166;2022-10-14T14:03:56;4.88;;;0.82;;
49320;SDS011;35817;44.498;0.166;2022-10-14T14:10:16;3.72;;;0.43;;
49320;SDS011;35817;44.498;0.166;2022-10-14T14:13:07;1.88;;;0.22;;
49320;SDS011;35817;44.498;0.166;2022-10-14T14:19:24;3.10;;;0.50;;
49320;SDS011;35817;44.498;0.166;2022-10-14T14:22:10;1.15;;;0.40;;
49320;SDS011;35817;44.498;0.166;2022-10-14T14:28:35;4.18;;;0.43;;
49320;SDS011;35817;44.498;0.166;2022-10-14T14:31:04;2.45;;;0.50;;
49320;SDS011;35817;44.498;0.166;2022-10-14T14:36:47;3.22;;;0.30;;
49320;SDS011;35817;44.498;0.166;2022-10-14T14:49:29;3.13;;;0.50;;
49320;SDS011;35817;44.498;0.166;2022-10-14T14:51:57;1.65;;;0.28;;
49320;SDS011;35817;44.498;0.166;2022-10-14T14:54:30;6.78;;;0.60;;
49320;SDS011;35817;44.498;0.166;2022-10-14T14:59:31;4.65;;;0.50;;
49320;SDS011;35817;44.498;0.166;2022-10-14T15:02:00;2.05;;;0.30;;
49320;SDS011;35817;44.498;0.166;2022-10-14T15:04:33;4.45;;;0.50;;
49320;SDS011;35817;44.498;0.166;2022-10-14T15:07:00;3.90;;;0.30;;
49320;SDS011;35817;44.498;0.166;2022-10-14T15:12:14;3.35;;;0.20;;
49320;SDS011;35817;44.498;0.166;2022-10-14T15:17:32;3.30;;;0.47;;
49320;SDS011;35817;44.498;0.166;2022-10-14T15:22:40;3.15;;;0.30;;
49320;SDS011;35817;44.498;0.166;2022-10-14T15:25:21;5.88;;;0.63;;
49320;SDS011;35817;44.498;0.166;2022-10-14T15:30:31;1.33;;;0.30;;
49320;SDS011;35817;44.498;0.166;2022-10-14T15:33:14;1.60;;;0.40;;
49320;SDS011;35817;44.498;0.166;2022-10-14T15:35:43;2.57;;;0.30;;
49320;SDS011;35817;44.498;0.166;2022-10-14T15:38:16;1.63;;;0.30;;
49320;SDS011;35817;44.498;0.166;2022-10-14T15:40:43;2.35;;;0.45;;
49320;SDS011;35817;44.498;0.166;2022-10-14T15:43:11;3.00;;;0.60;;
49320;SDS011;35817;44.498;0.166;2022-10-14T15:45:42;1.92;;;0.55;;
49320;SDS011;35817;44.498;0.166;2022-10-14T15:48:15;3.70;;;0.32;;
49320;SDS011;35817;44.498;0.166;2022-10-14T15:50:44;3.72;;;0.95;;
49320;SDS011;35817;44.498;0.166;2022-10-14T15:53:12;4.18;;;0.30;;
49320;SDS011;35817;44.498;0.166;2022-10-14T15:55:37;5.10;;;0.28;;
49320;SDS011;35817;44.498;0.166;2022-10-14T15:58:03;6.70;;;0.45;;
49320;SDS011;35817;44.498;0.166;2022-10-14T16:00:29;2.33;;;0.30;;
49320;SDS011;35817;44.498;0.166;2022-10-14T16:02:56;4.30;;;0.60;;
49320;SDS011;35817;44.498;0.166;2022-10-14T16:05:24;2.75;;;0.30;;
49320;SDS011;35817;44.498;0.166;2022-10-14T16:07:50;3.85;;;0.35;;
49320;SDS011;35817;44.498;0.166;2022-10-14T16:10:17;1.33;;;0.60;;
49320;SDS011;35817;44.498;0.166;2022-10-14T16:12:44;5.63;;;0.35;;
49320;SDS011;35817;44.498;0.166;2022-10-14T16:17:42;3.45;;;0.35;;
49320;SDS011;35817;44.498;0.166;2022-10-14T16:20:07;0.85;;;0.20;;
49320;SDS011;35817;44.498;0.166;2022-10-14T16:22:35;1.83;;;0.30;;
49320;SDS011;35817;44.498;0.166;2022-10-14T16:25:01;1.63;;;0.38;;
49320;SDS011;35817;44.498;0.166;2022-10-14T16:27:27;3.33;;;0.50;;
49320;SDS011;35817;44.498;0.166;2022-10-14T16:29:53;3.80;;;0.75;;
49320;SDS011;35817;44.498;0.166;2022-10-14T16:32:18;4.00;;;0.50;;
49320;SDS011;35817;44.498;0.166;2022-10-14T16:34:44;2.88;;;0.52;;
49320;SDS011;35817;44.498;0.166;2022-10-14T16:37:10;3.55;;;0.55;;
49320;SDS011;35817;44.498;0.166;2022-10-14T16:39:36;2.40;;;0.30;;
49320;SDS011;35817;44.498;0.166;2022-10-14T16:42:02;3.72;;;0.43;;
49320;SDS011;35817;44.498;0.166;2022-10-14T16:44:28;3.90;;;0.55;;
49320;SDS011;35817;44.498;0.166;2022-10-14T16:46:55;3.42;;;0.40;;
49320;SDS011;35817;44.498;0.166;2022-10-14T16:49:40;2.63;;;0.80;;
49320;SDS011;35817;44.498;0.166;2022-10-14T16:52:08;3.30;;;0.20;;
49320;SDS011;35817;44.498;0.166;2022-10-14T16:54:34;1.92;;;0.30;;
49320;SDS011;35817;44.498;0.166;2022-10-14T16:57:00;1.27;;;0.20;;
49320;SDS011;35817;44.498;0.166;2022-10-14T16:59:26;2.90;;;0.57;;
49320;SDS011;35817;44.498;0.166;2022-10-14T17:01:52;2.67;;;0.60;;
49320;SDS011;35817;44.498;0.166;2022-10-14T17:04:19;1.95;;;0.25;;
49320;SDS011;35817;44.498;0.166;2022-10-14T17:06:46;1.73;;;0.25;;
49320;SDS011;35817;44.498;0.166;2022-10-14T17:09:13;2.13;;;0.28;;
49320;SDS011;35817;44.498;0.166;2022-10-14T17:11:40;1.70;;;0.30;;
49320;SDS011;35817;44.498;0.166;2022-10-14T17:14:06;2.00;;;0.32;;
49320;SDS011;35817;44.498;0.166;2022-10-14T17:16:33;1.35;;;0.35;;
49320;SDS011;35817;44.498;0.166;2022-10-14T17:18:59;2.35;;;0.50;;
49320;SDS011;35817;44.498;0.166;2022-10-14T17:21:25;1.75;;;0.30;;
49320;SDS011;35817;44.498;0.166;2022-10-14T17:23:54;3.35;;;0.43;;
49320;SDS011;35817;44.498;0.166;2022-10-14T17:26:25;2.30;;;0.40;;
49320;SDS011;35817;44.498;0.166;2022-10-14T17:28:53;3.13;;;0.40;;
49320;SDS011;35817;44.498;0.166;2022-10-14T17:31:19;3.70;;;0.20;;
49320;SDS011;35817;44.498;0.166;2022-10-14T17:33:47;3.17;;;0.40;;
49320;SDS011;35817;44.498;0.166;2022-10-14T17:36:15;2.35;;;0.20;;
49320;SDS011;35817;44.498;0.166;2022-10-14T17:38:43;1.02;;;0.30;;
49320;SDS011;35817;44.498;0.166;2022-10-14T17:41:10;2.25;;;0.20;;
49320;SDS011;35817;44.498;0.166;2022-10-14T17:43:37;3.15;;;0.30;;
49320;SDS011;35817;44.498;0.166;2022-10-14T17:46:04;1.75;;;0.20;;
49320;SDS011;35817;44.498;0.166;2022-10-14T17:48:32;2.38;;;0.57;;
49320;SDS011;35817;44.498;0.166;2022-10-14T17:50:59;3.20;;;0.47;;
49320;SDS011;35817;44.498;0.166;2022-10-14T17:53:26;1.83;;;0.22;;
49320;SDS011;35817;44.498;0.166;2022-10-14T17:55:52;2.83;;;0.50;;
49320;SDS011;35817;44.498;0.166;2022-10-14T17:58:18;2.10;;;0.30;;
49320;SDS011;35817;44.498;0.166;2022-10-14T18:00:45;1.45;;;0.20;;
49320;SDS011;35817;44.498;0.166;2022-10-14T18:03:11;4.63;;;0.55;;
49320;SDS011;35817;44.498;0.166;2022-10-14T18:05:37;2.60;;;0.30;;
49320;SDS011;35817;44.498;0.166;2022-10-14T18:08:05;0.98;;;0.40;;
49320;SDS011;35817;44.498;0.166;2022-10-14T18:10:33;2.13;;;0.63;;
49320;SDS011;35817;44.498;0.166;2022-10-14T18:13:00;1.77;;;0.38;;
49320;SDS011;35817;44.498;0.166;2022-10-14T18:15:26;1.65;;;0.52;;
49320;SDS011;35817;44.498;0.166;2022-10-14T18:17:55;3.95;;;0.40;;
49320;SDS011;35817;44.498;0.166;2022-10-14T18:20:22;4.10;;;0.55;;
49320;SDS011;35817;44.498;0.166;2022-10-14T18:22:48;3.90;;;0.70;;
49320;SDS011;35817;44.498;0.166;2022-10-14T18:25:13;2.20;;;0.60;;
49320;SDS011;35817;44.498;0.166;2022-10-14T18:27:40;2.95;;;0.45;;
49320;SDS011;35817;44.498;0.166;2022-10-14T18:30:07;7.10;;;1.05;;
49320;SDS011;35817;44.498;0.166;2022-10-14T18:32:34;3.75;;;0.60;;
49320;SDS011;35817;44.498;0.166;2022-10-14T18:35:00;2.65;;;0.50;;
49320;SDS011;35817;44.498;0.166;2022-10-14T18:37:27;5.40;;;0.90;;
49320;SDS011;35817;44.498;0.166;2022-10-14T18:39:52;4.15;;;1.00;;